Time;durP1;ratioP1;P1;durP2;ratioP2;P2;SDS_P1;SDS_P2;PMS_P1;PMS_P2;Temp;Humidity;BMP_temperature;BMP_pressure;BME280_temperature;BME280_humidity;BME280_pressure;Samples;Min_cycle;Max_cycle;Signal;HPM_P1;HPM_P2
2022/05/16 00:02:23;;;;;;;2.87;1.87;;;14.50;57.40;;;;;;2374388;56;21039;-72
2022/05/16 00:04:51;;;;;;;5.05;1.75;;;14.40;57.50;;;;;;2627777;52;21609;-73
2022/05/16 00:07:20;;;;;;;5.10;1.87;;;14.40;57.40;;;;;;2374084;56;21185;-72
2022/05/16 00:09:48;;;;;;;4.70;2.05;;;14.40;58.10;;;;;;2372721;56;21024;-72
2022/05/16 00:12:16;;;;;;;5.50;1.98;;;14.40;57.70;;;;;;2374447;56;21055;-72
2022/05/16 00:14:45;;;;;;;3.37;2.00;;;14.30;57.50;;;;;;2373640;56;21035;-73
2022/05/16 00:17:13;;;;;;;5.87;2.50;;;14.30;57.60;;;;;;2372990;56;21035;-73
2022/05/16 00:19:40;;;;;;;3.50;2.10;;;14.30;57.70;;;;;;2374264;56;21079;-72
2022/05/16 00:22:09;;;;;;;5.07;2.12;;;14.30;57.70;;;;;;2374176;56;21182;-72
2022/05/16 00:24:41;;;;;;;5.30;2.20;;;14.30;57.80;;;;;;2373559;56;21050;-72
2022/05/16 00:27:09;;;;;;;5.32;2.40;;;14.30;57.80;;;;;;2627370;52;21086;-72
2022/05/16 00:29:37;;;;;;;4.22;2.05;;;14.30;57.90;;;;;;2627651;52;21031;-72
2022/05/16 00:32:06;;;;;;;5.07;2.28;;;14.20;57.80;;;;;;2373815;56;21130;-72
2022/05/16 00:34:33;;;;;;;4.20;2.55;;;14.20;57.80;;;;;;2626216;52;21031;-72
2022/05/16 00:37:00;;;;;;;4.03;1.85;;;14.20;58.00;;;;;;2373879;56;21530;-72
2022/05/16 00:39:28;;;;;;;5.43;2.37;;;14.20;58.30;;;;;;2627560;52;21043;-72
2022/05/16 00:41:55;;;;;;;4.20;2.10;;;14.20;58.30;;;;;;2374375;56;21062;-72
2022/05/16 00:44:24;;;;;;;6.22;2.33;;;14.10;58.20;;;;;;2374348;56;21135;-72
2022/05/16 00:46:51;;;;;;;5.18;2.10;;;14.10;58.90;;;;;;2373710;56;21050;-72
2022/05/16 00:49:24;;;;;;;7.47;2.15;;;14.10;58.30;;;;;;2373955;56;21047;-72
2022/05/16 00:51:59;;;;;;;6.82;2.50;;;14.00;58.40;;;;;;2373691;56;21039;-73
2022/05/16 00:54:29;;;;;;;3.83;1.77;;;14.10;58.30;;;;;;2373506;56;21573;-73
2022/05/16 00:57:02;;;;;;;4.80;2.10;;;14.10;58.30;;;;;;2373890;56;22186;-73
2022/05/16 00:59:35;;;;;;;3.47;1.90;;;14.00;58.40;;;;;;2374333;56;21087;-72
2022/05/16 01:04:48;;;;;;;2.87;2.00;;;14.00;58.60;;;;;;2373625;56;21059;-72
2022/05/16 01:07:19;;;;;;;4.60;2.20;;;14.00;58.70;;;;;;2626025;52;21039;-72
2022/05/16 01:09:47;;;;;;;7.85;2.33;;;13.90;58.70;;;;;;2373633;56;21042;-72
2022/05/16 01:12:14;;;;;;;4.53;2.22;;;13.90;58.70;;;;;;2374600;56;21050;-72
2022/05/16 01:14:49;;;;;;;5.40;2.30;;;13.90;58.70;;;;;;2627647;52;21058;-72
2022/05/16 01:17:18;;;;;;;4.32;2.00;;;13.90;58.90;;;;;;2374090;56;21035;-73
2022/05/16 01:19:46;;;;;;;4.35;2.05;;;13.90;59.00;;;;;;2373767;56;21125;-72
2022/05/16 01:22:34;;;;;;;7.82;2.62;;;13.90;59.10;;;;;;2627502;52;21042;-73
2022/05/16 01:25:10;;;;;;;4.75;2.25;;;13.80;59.30;;;;;;2372590;56;21115;-72
2022/05/16 01:27:44;;;;;;;5.87;2.33;;;13.80;59.20;;;;;;2374140;56;21038;-72
2022/05/16 01:30:14;;;;;;;6.43;2.35;;;13.80;59.20;;;;;;2373831;56;21117;-73
2022/05/16 01:32:41;;;;;;;10.80;2.65;;;13.80;59.20;;;;;;2627309;52;21038;-72
2022/05/16 01:35:10;;;;;;;6.28;2.20;;;13.80;59.40;;;;;;2374408;56;21038;-72
2022/05/16 01:40:23;;;;;;;7.00;2.50;;;13.70;59.60;;;;;;2372784;56;21485;-72
2022/05/16 01:42:50;;;;;;;6.50;2.22;;;13.70;59.80;;;;;;2374357;56;21573;-73
2022/05/16 01:45:18;;;;;;;7.40;2.35;;;13.60;60.10;;;;;;2373719;56;21054;-72
2022/05/16 01:47:45;;;;;;;4.43;2.28;;;13.60;60.50;;;;;;2374112;56;21098;-73
2022/05/16 01:50:13;;;;;;;4.18;2.17;;;13.60;60.60;;;;;;2373861;56;21127;-72
2022/05/16 01:52:40;;;;;;;3.90;1.87;;;13.60;60.80;;;;;;2374463;56;22121;-73
2022/05/16 01:55:11;;;;;;;2.95;2.22;;;13.60;60.70;;;;;;2373632;56;21620;-74
2022/05/16 01:57:38;;;;;;;6.28;2.35;;;13.50;60.70;;;;;;2372496;56;21047;-74
2022/05/16 02:00:09;;;;;;;5.72;2.35;;;13.50;60.60;;;;;;2374058;56;21114;-74
2022/05/16 02:02:39;;;;;;;4.97;2.50;;;13.50;60.70;;;;;;2374021;56;21055;-74
2022/05/16 02:05:07;;;;;;;9.57;2.85;;;13.50;60.50;;;;;;2374235;56;21126;-75
2022/05/16 02:07:35;;;;;;;8.15;2.72;;;13.50;60.50;;;;;;2374174;56;21127;-74
2022/05/16 02:10:02;;;;;;;11.02;3.22;;;13.50;60.40;;;;;;2626827;52;21042;-74
2022/05/16 02:12:30;;;;;;;9.77;2.70;;;13.50;60.40;;;;;;2373523;56;21115;-75
2022/05/16 02:14:57;;;;;;;7.10;3.25;;;13.50;60.50;;;;;;2373788;56;21039;-74
2022/05/16 02:17:24;;;;;;;6.07;2.67;;;13.50;60.50;;;;;;2372334;56;21050;-74
2022/05/16 02:19:51;;;;;;;5.95;2.65;;;13.40;60.40;;;;;;2374250;56;21107;-74
2022/05/16 02:25:05;;;;;;;5.93;2.80;;;13.40;61.00;;;;;;2374228;56;21716;-73
2022/05/16 02:27:34;;;;;;;7.97;2.62;;;13.40;61.30;;;;;;2374019;56;21043;-72
2022/05/16 02:30:01;;;;;;;6.80;2.90;;;13.40;61.30;;;;;;2627524;52;21063;-72
2022/05/16 02:32:28;;;;;;;7.35;3.00;;;13.40;61.20;;;;;;2373469;56;21023;-72
2022/05/16 02:34:55;;;;;;;6.15;2.58;;;13.40;61.00;;;;;;2372836;56;21059;-72
2022/05/16 02:37:23;;;;;;;4.78;2.85;;;13.40;61.30;;;;;;2373808;56;21525;-72
2022/05/16 02:39:50;;;;;;;5.62;2.83;;;13.30;61.60;;;;;;2374446;56;21146;-72
2022/05/16 02:42:17;;;;;;;11.30;3.40;;;13.30;61.80;;;;;;2374000;56;21145;-72
2022/05/16 02:44:45;;;;;;;7.50;2.78;;;13.30;61.90;;;;;;2374313;56;21023;-72
2022/05/16 02:47:13;;;;;;;4.20;2.45;;;13.30;62.00;;;;;;2373417;56;21047;-73
2022/05/16 02:49:41;;;;;;;5.45;2.28;;;13.30;62.10;;;;;;2372864;56;21189;-72
2022/05/16 02:52:08;;;;;;;6.37;2.97;;;13.30;62.30;;;;;;2373064;56;21110;-72
2022/05/16 02:54:36;;;;;;;4.55;2.50;;;13.30;62.30;;;;;;2373965;56;21047;-73
2022/05/16 02:57:05;;;;;;;4.80;2.95;;;13.30;62.30;;;;;;2373820;56;21094;-73
2022/05/16 02:59:33;;;;;;;9.90;2.92;;;13.30;62.30;;;;;;2374183;56;21035;-73
2022/05/16 03:02:01;;;;;;;9.35;3.25;;;13.30;62.30;;;;;;2373733;56;21152;-72
2022/05/16 03:04:29;;;;;;;11.95;3.08;;;13.30;62.20;;;;;;2374268;56;21050;-72
2022/05/16 03:06:56;;;;;;;4.55;2.65;;;13.30;62.30;;;;;;2373119;56;21043;-73
2022/05/16 03:09:24;;;;;;;4.07;2.50;;;13.30;62.50;;;;;;2373132;56;21115;-72
2022/05/16 03:11:53;;;;;;;4.87;3.08;;;13.30;62.70;;;;;;2627597;52;21126;-72
2022/05/16 03:14:20;;;;;;;4.80;2.33;;;13.30;62.80;;;;;;2374589;56;21051;-72
2022/05/16 03:16:48;;;;;;;6.35;2.92;;;13.30;63.10;;;;;;2373377;56;21062;-73
2022/05/16 03:19:16;;;;;;;19.00;3.00;;;13.30;63.20;;;;;;2374359;56;21063;-72
2022/05/16 03:21:43;;;;;;;5.12;2.65;;;13.30;63.00;;;;;;2374416;56;21043;-73
2022/05/16 03:24:10;;;;;;;5.37;2.53;;;13.30;62.80;;;;;;2373505;56;21190;-72
2022/05/16 03:26:38;;;;;;;5.55;2.95;;;13.30;62.90;;;;;;2372759;56;21545;-73
2022/05/16 03:29:07;;;;;;;6.62;3.17;;;13.30;62.90;;;;;;2374496;56;21047;-74
2022/05/16 03:31:34;;;;;;;4.28;2.45;;;13.30;63.00;;;;;;2373667;56;21338;-74
2022/05/16 03:34:03;;;;;;;8.80;2.85;;;13.20;63.10;;;;;;2374407;56;21050;-74
2022/05/16 03:36:30;;;;;;;6.90;2.70;;;13.20;63.10;;;;;;2373929;56;21051;-74
2022/05/16 03:41:43;;;;;;;6.62;3.05;;;13.20;62.90;;;;;;2374012;56;21509;-73
2022/05/16 03:44:10;;;;;;;7.03;2.90;;;13.20;62.70;;;;;;2372970;56;21066;-72
2022/05/16 03:46:38;;;;;;;7.35;3.12;;;13.20;63.00;;;;;;2373519;56;21067;-73
2022/05/16 03:49:06;;;;;;;7.28;2.78;;;13.20;63.10;;;;;;2374374;56;21127;-72
2022/05/16 03:51:34;;;;;;;5.00;2.78;;;13.20;63.40;;;;;;2374360;56;21023;-72
2022/05/16 03:54:01;;;;;;;9.25;3.25;;;13.20;63.60;;;;;;2373885;56;21036;-72
2022/05/16 03:56:29;;;;;;;5.32;3.00;;;13.20;63.80;;;;;;2373561;56;21122;-72
2022/05/16 03:58:57;;;;;;;8.10;2.83;;;13.20;64.00;;;;;;2373994;56;21063;-72
2022/05/16 04:01:25;;;;;;;8.20;2.85;;;13.20;64.20;;;;;;2373446;56;21118;-73
2022/05/16 04:03:53;;;;;;;8.20;2.50;;;13.20;64.00;;;;;;2373676;56;21371;-74
2022/05/16 04:06:20;;;;;;;4.90;2.72;;;13.20;64.10;;;;;;2373389;56;21070;-73
2022/05/16 04:08:48;;;;;;;7.65;2.60;;;13.20;64.20;;;;;;2374034;56;21058;-72
2022/05/16 04:11:17;;;;;;;5.07;2.50;;;13.30;64.20;;;;;;2627496;52;21055;-73
2022/05/16 04:13:46;;;;;;;5.70;2.97;;;13.30;64.10;;;;;;2626662;52;21118;-72
2022/05/16 04:16:14;;;;;;;6.95;2.70;;;13.30;64.10;;;;;;2372359;56;21640;-75
2022/05/16 04:18:44;;;;;;;6.28;2.75;;;13.30;64.00;;;;;;2624177;52;21542;-75
2022/05/16 04:21:11;;;;;;;6.15;2.50;;;13.30;64.10;;;;;;2374312;56;21343;-74
2022/05/16 04:23:39;;;;;;;5.72;2.50;;;13.30;64.30;;;;;;2374145;56;21086;-74
2022/05/16 04:26:06;;;;;;;4.87;2.35;;;13.30;64.50;;;;;;2373808;56;21054;-75
2022/05/16 04:28:34;;;;;;;7.12;2.50;;;13.40;64.70;;;;;;2373977;56;21055;-74
2022/05/16 04:31:01;;;;;;;4.97;2.75;;;13.40;64.80;;;;;;2374551;56;21054;-75
2022/05/16 04:33:28;;;;;;;4.60;2.50;;;13.40;65.10;;;;;;2373386;56;21201;-74
2022/05/16 04:35:56;;;;;;;7.68;2.58;;;13.40;65.30;;;;;;2372671;56;21031;-73
2022/05/16 04:38:23;;;;;;;8.18;3.20;;;13.40;65.60;;;;;;2374222;56;21047;-74
2022/05/16 04:43:36;;;;;;;5.35;2.75;;;13.50;65.70;;;;;;2373890;56;21022;-73
2022/05/16 04:46:06;;;;;;;7.70;3.05;;;13.50;65.50;;;;;;2373429;56;21047;-73
2022/05/16 04:48:34;;;;;;;8.10;2.65;;;13.50;65.50;;;;;;2372130;56;21070;-73
2022/05/16 04:51:01;;;;;;;5.95;2.72;;;13.60;65.90;;;;;;2625839;52;21051;-73
2022/05/16 04:53:29;;;;;;;6.45;3.58;;;13.60;65.40;;;;;;2372542;56;21115;-73
2022/05/16 04:55:56;;;;;;;5.35;2.75;;;13.70;65.40;;;;;;2626039;52;21102;-74
2022/05/16 04:58:23;;;;;;;6.25;3.17;;;13.70;65.40;;;;;;2626651;52;21031;-73
2022/05/16 05:00:51;;;;;;;6.15;2.83;;;13.70;65.40;;;;;;2373118;56;21106;-73
2022/05/16 05:03:18;;;;;;;8.60;2.87;;;13.80;65.60;;;;;;2374304;56;21117;-73
2022/05/16 05:05:45;;;;;;;7.12;3.15;;;13.80;65.80;;;;;;2369152;56;21573;-73
2022/05/16 05:08:13;;;;;;;8.38;3.47;;;13.80;65.90;;;;;;2373082;56;21541;-73
2022/05/16 05:16:14;;;;;;;7.68;3.20;;;13.90;65.90;;;;;;2372435;56;21007;-73
2022/05/16 05:18:42;;;;;;;10.68;3.70;;;13.90;66.00;;;;;;2373113;56;21047;-74
2022/05/16 05:21:10;;;;;;;8.88;3.42;;;13.90;66.20;;;;;;2372166;56;21043;-74
2022/05/16 05:23:39;;;;;;;9.05;3.70;;;13.90;66.30;;;;;;2625140;52;21181;-73
2022/05/16 05:26:07;;;;;;;7.80;3.45;;;13.90;66.30;;;;;;2625911;52;21050;-73
2022/05/16 05:28:35;;;;;;;11.38;3.67;;;13.90;66.20;;;;;;2373004;56;21058;-72
2022/05/16 05:31:02;;;;;;;6.45;2.78;;;14.00;66.30;;;;;;2373188;56;21561;-73
2022/05/16 05:33:30;;;;;;;8.40;3.05;;;14.00;66.30;;;;;;2373621;56;21138;-73
2022/05/16 05:35:57;;;;;;;7.87;2.72;;;14.00;66.40;;;;;;2373972;56;21043;-73
2022/05/16 05:38:24;;;;;;;6.78;2.67;;;14.10;66.40;;;;;;2374425;56;21082;-72
2022/05/16 05:40:51;;;;;;;9.38;2.78;;;14.10;66.30;;;;;;2373236;56;21652;-73
2022/05/16 05:43:19;;;;;;;6.47;3.00;;;14.20;66.30;;;;;;2373578;56;21055;-72
2022/05/16 05:45:46;;;;;;;8.15;3.47;;;14.30;66.20;;;;;;2374065;56;21110;-73
2022/05/16 05:48:13;;;;;;;4.32;2.55;;;14.30;66.00;;;;;;2373768;56;21125;-72
2022/05/16 05:50:40;;;;;;;4.85;2.40;;;14.30;65.90;;;;;;2374302;56;21035;-72
2022/05/16 05:53:08;;;;;;;6.45;2.22;;;14.40;66.10;;;;;;2374227;56;21110;-72
2022/05/16 05:55:35;;;;;;;8.00;2.60;;;14.40;65.80;;;;;;2627121;52;22005;-73
2022/05/16 05:58:02;;;;;;;5.62;2.25;;;14.50;65.50;;;;;;2372709;56;21521;-72
2022/05/16 06:00:29;;;;;;;9.18;3.00;;;14.50;65.30;;;;;;2373457;56;21369;-72
2022/05/16 06:02:56;;;;;;;9.50;2.87;;;14.60;65.20;;;;;;2373752;56;21066;-72
2022/05/16 06:05:24;;;;;;;6.30;2.40;;;14.60;65.20;;;;;;2373535;56;21573;-73
2022/05/16 06:07:52;;;;;;;9.23;2.60;;;14.70;65.40;;;;;;2373733;56;21094;-73
2022/05/16 06:10:19;;;;;;;6.40;2.35;;;14.70;65.30;;;;;;2374566;56;21038;-73
2022/05/16 06:12:47;;;;;;;7.47;2.37;;;14.80;65.00;;;;;;2373730;56;21102;-72
2022/05/16 06:15:15;;;;;;;5.85;2.10;;;14.80;64.80;;;;;;2372888;56;21157;-72
2022/05/16 06:17:43;;;;;;;8.88;2.30;;;14.90;64.80;;;;;;2373839;56;21189;-72
2022/05/16 06:20:13;;;;;;;7.32;2.62;;;14.90;64.70;;;;;;2374056;56;21114;-73
2022/05/16 06:22:41;;;;;;;7.93;2.70;;;15.00;64.70;;;;;;2374302;56;21562;-72
2022/05/16 06:27:57;;;;;;;10.63;2.17;;;15.10;64.40;;;;;;2373835;56;21098;-74
2022/05/16 06:33:01;;;;;;;6.30;1.85;;;15.20;64.00;;;;;;2356083;57;22038;-73
2022/05/16 06:35:28;;;;;;;7.07;2.58;;;15.20;63.70;;;;;;2347065;57;21049;-73
2022/05/16 06:37:56;;;;;;;6.12;2.22;;;15.30;63.50;;;;;;2364167;56;21589;-72
2022/05/16 06:40:23;;;;;;;5.35;2.70;;;15.30;63.50;;;;;;2375487;56;21027;-73
2022/05/16 06:42:51;;;;;;;5.87;2.20;;;15.40;63.30;;;;;;2374942;56;21093;-72
2022/05/16 06:45:18;;;;;;;7.53;2.58;;;15.50;63.10;;;;;;2375074;56;21561;-73
2022/05/16 06:47:45;;;;;;;8.80;2.50;;;15.50;62.70;;;;;;2629025;52;21086;-73
2022/05/16 06:50:13;;;;;;;4.25;2.05;;;15.50;62.70;;;;;;2374138;56;21043;-73
2022/05/16 06:52:40;;;;;;;8.23;2.53;;;15.60;62.80;;;;;;2374853;56;21142;-73
2022/05/16 06:55:08;;;;;;;6.87;2.00;;;15.60;62.40;;;;;;2375129;56;21132;-73
2022/05/16 06:57:36;;;;;;;5.97;2.62;;;15.70;62.10;;;;;;2374905;56;21043;-73
2022/05/16 07:00:08;;;;;;;6.68;2.58;;;15.70;62.10;;;;;;2629089;52;21055;-73
2022/05/16 07:02:35;;;;;;;5.25;2.50;;;15.80;62.30;;;;;;2628890;52;21047;-73
2022/05/16 07:05:03;;;;;;;4.10;2.20;;;15.80;61.80;;;;;;2375049;56;21577;-72
2022/05/16 07:07:30;;;;;;;9.70;2.42;;;15.90;62.80;;;;;;2373833;56;21047;-73
2022/05/16 07:09:57;;;;;;;6.47;2.20;;;15.90;62.90;;;;;;2375079;56;21031;-73
2022/05/16 07:12:25;;;;;;;7.70;2.85;;;16.00;62.70;;;;;;2628498;52;21119;-73
2022/05/16 07:14:53;;;;;;;5.37;2.33;;;16.00;62.20;;;;;;2373241;56;21035;-73
2022/05/16 07:17:20;;;;;;;4.50;2.45;;;16.10;61.40;;;;;;2373312;56;21063;-72
2022/05/16 07:19:49;;;;;;;8.13;2.87;;;16.10;61.40;;;;;;2374966;56;21086;-73
2022/05/16 07:22:22;;;;;;;6.03;2.15;;;16.20;61.50;;;;;;2374970;56;21134;-73
2022/05/16 07:24:51;;;;;;;8.38;2.53;;;16.30;61.50;;;;;;2375155;56;21031;-73
2022/05/16 07:30:07;;;;;;;6.05;2.62;;;16.50;61.00;;;;;;2375016;56;20986;-73
2022/05/16 07:32:36;;;;;;;7.95;2.42;;;16.60;61.00;;;;;;2374982;56;21039;-73
2022/05/16 07:35:05;;;;;;;5.20;2.20;;;16.60;60.50;;;;;;2374071;56;21058;-73
2022/05/16 07:37:32;;;;;;;5.28;2.10;;;16.70;61.10;;;;;;2374571;56;21035;-73
2022/05/16 07:40:00;;;;;;;4.95;2.33;;;16.80;61.10;;;;;;2374902;56;21106;-73
2022/05/16 07:42:27;;;;;;;5.20;2.37;;;16.90;60.50;;;;;;2374929;56;21027;-73
2022/05/16 07:44:54;;;;;;;5.93;2.17;;;16.90;60.70;;;;;;2372612;56;21074;-73
2022/05/16 07:47:21;;;;;;;5.50;2.53;;;17.00;60.00;;;;;;2371924;56;21031;-73
2022/05/16 07:49:49;;;;;;;5.07;2.20;;;17.10;59.80;;;;;;2373395;56;21700;-73
2022/05/16 07:52:16;;;;;;;5.55;2.30;;;17.10;59.70;;;;;;2626104;52;21050;-73
2022/05/16 07:54:43;;;;;;;5.12;2.08;;;17.20;59.60;;;;;;2372729;56;21115;-73
2022/05/16 07:57:11;;;;;;;3.87;2.20;;;17.30;59.70;;;;;;2372627;56;21039;-73
2022/05/16 07:59:39;;;;;;;8.20;2.55;;;17.40;59.40;;;;;;2372648;56;21106;-73
2022/05/16 08:02:07;;;;;;;7.00;2.42;;;17.50;59.90;;;;;;2373368;56;21039;-73
2022/05/16 08:04:34;;;;;;;7.35;2.65;;;17.60;59.70;;;;;;2373406;56;21035;-73
2022/05/16 08:07:04;;;;;;;10.57;3.30;;;17.70;59.50;;;;;;2372751;56;21046;-73
2022/05/16 08:12:24;;;;;;;6.47;2.67;;;17.90;59.20;;;;;;2372815;56;21035;-73
2022/05/16 08:14:51;;;;;;;4.43;1.90;;;17.90;59.20;;;;;;2372791;56;21063;-73
2022/05/16 08:17:19;;;;;;;4.80;1.92;;;18.00;58.80;;;;;;2372782;56;21510;-73
2022/05/16 08:19:47;;;;;;;4.15;2.35;;;18.10;58.30;;;;;;2372853;56;21110;-73
2022/05/16 08:22:15;;;;;;;9.98;2.25;;;18.20;58.10;;;;;;2371542;56;21043;-73
2022/05/16 08:24:42;;;;;;;4.18;2.00;;;18.20;58.00;;;;;;2625797;52;21035;-73
2022/05/16 08:27:10;;;;;;;6.15;2.22;;;18.40;57.60;;;;;;2373573;56;21518;-73
2022/05/16 08:29:37;;;;;;;6.00;2.25;;;18.40;57.20;;;;;;2373727;56;21629;-73
2022/05/16 08:32:07;;;;;;;6.72;2.55;;;18.50;57.30;;;;;;2372841;56;21047;-73
2022/05/16 08:34:34;;;;;;;4.62;2.08;;;18.60;57.40;;;;;;2373340;56;21050;-73
2022/05/16 08:39:53;;;;;;;5.40;1.80;;;18.70;57.60;;;;;;2373286;56;21340;-73
2022/05/16 08:42:23;;;;;;;5.60;2.45;;;18.70;56.90;;;;;;2373197;56;21110;-73
2022/05/16 08:44:58;;;;;;;5.43;2.08;;;18.80;56.70;;;;;;2373267;56;21090;-73
2022/05/16 08:47:39;;;;;;;5.07;2.00;;;18.80;56.90;;;;;;2373690;56;21098;-73
2022/05/16 08:50:13;;;;;;;5.05;2.20;;;18.90;57.20;;;;;;2373542;56;21047;-73
2022/05/16 08:52:45;;;;;;;7.03;2.37;;;19.00;56.60;;;;;;2373894;56;21105;-73
2022/05/16 08:55:22;;;;;;;3.58;1.95;;;19.00;55.70;;;;;;2374203;56;21095;-73
2022/05/16 08:57:54;;;;;;;4.28;2.15;;;19.00;55.80;;;;;;2374403;56;21059;-73
2022/05/16 09:00:28;;;;;;;4.53;2.10;;;19.00;56.00;;;;;;2374849;56;21050;-73
2022/05/16 09:02:57;;;;;;;6.55;2.37;;;19.10;56.00;;;;;;2374386;56;21117;-73
2022/05/16 09:05:29;;;;;;;6.60;2.33;;;19.10;56.50;;;;;;2373475;56;21114;-73
2022/05/16 09:07:59;;;;;;;7.40;2.15;;;19.20;56.80;;;;;;2373637;56;21636;-73
2022/05/16 09:10:37;;;;;;;4.32;1.83;;;19.20;56.50;;;;;;2373441;56;21067;-73
2022/05/16 09:13:14;;;;;;;6.82;2.70;;;19.20;56.30;;;;;;2374420;56;21042;-73
2022/05/16 09:16:01;;;;;;;3.80;1.85;;;19.30;56.00;;;;;;2374022;56;21039;-73
2022/05/16 09:18:37;;;;;;;7.03;2.12;;;19.30;55.50;;;;;;2374311;56;21086;-73
2022/05/16 09:21:11;;;;;;;5.43;2.40;;;19.30;55.40;;;;;;2373736;56;21043;-73
2022/05/16 09:26:50;;;;;;;5.82;1.83;;;19.40;56.40;;;;;;2353611;57;22516;-73
2022/05/16 09:29:25;;;;;;;4.35;2.05;;;19.50;55.80;;;;;;2593489;53;21144;-73
2022/05/16 09:31:56;;;;;;;5.18;2.08;;;19.50;55.50;;;;;;2347854;57;21113;-73
2022/05/16 09:34:24;;;;;;;6.45;2.53;;;19.60;55.50;;;;;;2358837;52;21026;-73
2022/05/16 09:36:51;;;;;;;4.78;2.20;;;19.60;55.50;;;;;;2485779;52;21078;-74
2022/05/16 09:39:24;;;;;;;7.43;2.67;;;19.60;55.50;;;;;;2405222;55;21083;-74
2022/05/16 09:41:59;;;;;;;4.32;2.33;;;19.60;56.20;;;;;;2405415;55;21071;-74
2022/05/16 09:44:29;;;;;;;7.30;2.30;;;19.70;55.30;;;;;;2404766;55;21032;-74
2022/05/16 09:47:19;;;;;;;4.22;2.05;;;19.70;55.00;;;;;;2403429;55;21028;-73
2022/05/16 09:50:03;;;;;;;4.28;2.00;;;19.70;54.90;;;;;;2404810;55;21044;-74
2022/05/16 09:52:32;;;;;;;4.50;2.08;;;19.80;54.70;;;;;;2404469;55;21032;-74
2022/05/16 09:55:03;;;;;;;5.18;2.10;;;19.80;54.60;;;;;;2404096;55;21028;-74
2022/05/16 09:57:37;;;;;;;3.67;2.10;;;19.90;54.40;;;;;;2403887;55;21150;-73
2022/05/16 10:00:19;;;;;;;3.37;1.83;;;19.90;54.60;;;;;;2404102;55;21040;-74
2022/05/16 10:02:55;;;;;;;4.57;2.12;;;20.00;54.50;;;;;;2403713;55;21130;-75
2022/05/16 10:05:26;;;;;;;5.00;1.98;;;20.00;54.00;;;;;;2403707;55;21048;-74
2022/05/16 10:08:11;;;;;;;5.72;2.28;;;20.00;54.60;;;;;;2403614;55;21108;-74
2022/05/16 10:10:42;;;;;;;4.43;1.98;;;20.10;54.10;;;;;;2403465;55;21048;-74
2022/05/16 10:13:09;;;;;;;5.80;1.83;;;20.10;54.00;;;;;;2404238;55;21043;-74
2022/05/16 10:15:38;;;;;;;4.25;2.00;;;20.10;53.40;;;;;;2404955;55;21051;-74
2022/05/16 10:18:08;;;;;;;5.70;2.08;;;20.20;53.20;;;;;;2404432;55;21052;-74
2022/05/16 10:20:39;;;;;;;6.25;2.12;;;20.20;53.50;;;;;;2405199;55;21628;-74
2022/05/16 10:23:12;;;;;;;4.85;2.12;;;20.20;52.50;;;;;;2403154;55;21012;-74
2022/05/16 10:25:42;;;;;;;7.27;2.10;;;20.30;53.10;;;;;;2404213;55;21044;-73
2022/05/16 10:28:12;;;;;;;4.25;2.00;;;20.40;53.50;;;;;;2403077;55;21028;-74
2022/05/16 10:33:33;;;;;;;4.82;2.12;;;20.50;51.90;;;;;;2403956;55;20996;-73
2022/05/16 10:36:04;;;;;;;4.53;2.05;;;20.50;52.60;;;;;;2401998;55;21043;-74
2022/05/16 10:38:38;;;;;;;4.90;2.28;;;20.60;51.80;;;;;;2403358;56;21047;-73
2022/05/16 10:41:13;;;;;;;;;;;20.70;51.90;;;;;;2405604;56;21028;-74
2022/05/16 10:43:54;;;;;;;4.10;2.12;;;20.70;51.90;;;;;;2402856;56;20073;-74
2022/05/16 10:46:25;;;;;;;4.95;2.03;;;20.80;50.60;;;;;;2403142;56;21044;-74
2022/05/16 10:48:57;;;;;;;3.28;1.65;;;20.90;50.40;;;;;;2403462;56;21692;-74
2022/05/16 10:51:31;;;;;;;4.87;1.80;;;21.00;51.60;;;;;;2404214;56;21044;-74
2022/05/16 10:54:05;;;;;;;4.45;1.48;;;21.10;51.60;;;;;;2403935;56;21241;-74
2022/05/16 10:59:51;;;;;;;5.65;2.72;;;21.30;49.70;;;;;;2355695;57;22476;-73
2022/05/16 11:02:29;;;;;;;3.08;1.65;;;21.40;49.60;;;;;;2346851;57;21128;-74
2022/05/16 11:05:21;;;;;;;3.78;1.92;;;21.50;50.30;;;;;;2346962;57;21339;-74
2022/05/16 11:07:57;;;;;;;4.78;1.67;;;21.70;49.40;;;;;;2612992;52;21094;-73
2022/05/16 11:10:31;;;;;;;6.50;1.67;;;21.80;49.80;;;;;;2374407;56;21712;-74
2022/05/16 11:13:11;;;;;;;9.57;1.92;;;22.00;49.10;;;;;;2375382;56;21047;-74
2022/05/16 11:15:44;;;;;;;3.75;1.50;;;22.10;48.50;;;;;;2375231;56;21055;-74
2022/05/16 11:18:15;;;;;;;;;;;22.30;48.60;;;;;;2378378;56;21038;-74
2022/05/16 11:20:46;;;;;;;4.55;2.10;;;22.40;48.80;;;;;;2375027;56;20121;-74
2022/05/16 11:23:24;;;;;;;4.93;1.83;;;22.60;47.60;;;;;;2375205;56;21133;-74
2022/05/16 11:25:58;;;;;;;4.85;2.25;;;22.80;46.10;;;;;;2374216;56;21039;-74
2022/05/16 11:28:32;;;;;;;6.95;2.75;;;22.90;46.00;;;;;;2374846;56;21051;-75
2022/05/16 11:31:04;;;;;;;5.20;1.90;;;23.00;45.70;;;;;;2375180;56;21122;-74
2022/05/16 11:33:39;;;;;;;4.87;1.80;;;23.10;45.40;;;;;;2374633;56;21039;-74
2022/05/16 11:36:19;;;;;;;5.12;1.75;;;23.20;44.80;;;;;;2374272;56;21043;-74
2022/05/16 11:39:03;;;;;;;6.32;2.10;;;23.30;44.60;;;;;;2374845;56;21114;-74
2022/05/16 11:41:50;;;;;;;4.53;1.80;;;23.40;44.50;;;;;;2374803;56;21588;-74
2022/05/16 11:44:27;;;;;;;3.72;1.92;;;23.50;44.10;;;;;;2373569;56;21130;-74
2022/05/16 11:47:01;;;;;;;4.37;1.80;;;23.70;45.30;;;;;;2373212;56;21137;-74
2022/05/16 11:49:36;;;;;;;4.90;1.92;;;23.80;43.50;;;;;;2374551;56;21106;-73
2022/05/16 11:52:17;;;;;;;5.45;1.87;;;23.90;43.80;;;;;;2374583;56;21028;-73
2022/05/16 11:54:52;;;;;;;3.95;1.87;;;24.00;43.50;;;;;;2374590;56;21042;-74
2022/05/16 12:00:33;;;;;;;6.82;1.80;;;24.20;43.10;;;;;;2374397;56;21490;-74
2022/05/16 12:03:18;;;;;;;4.50;2.00;;;24.30;42.80;;;;;;2374325;56;21019;-73
2022/05/16 12:05:47;;;;;;;3.47;1.73;;;24.40;43.00;;;;;;2373390;56;21208;-74
2022/05/16 12:08:42;;;;;;;5.75;1.42;;;24.40;41.90;;;;;;2374588;56;21222;-74
2022/05/16 12:11:20;;;;;;;5.50;1.77;;;24.50;42.70;;;;;;2373357;56;21166;-74
2022/05/16 12:14:01;;;;;;;4.55;1.98;;;24.50;42.50;;;;;;2372366;56;21098;-74
2022/05/16 12:16:32;;;;;;;6.82;2.00;;;24.60;42.70;;;;;;2373068;56;21081;-73
2022/05/16 12:19:24;;;;;;;3.30;1.75;;;24.80;43.00;;;;;;2373125;56;21035;-74
2022/05/16 12:21:58;;;;;;;6.75;1.98;;;24.90;42.80;;;;;;2371567;56;21043;-74
2022/05/16 12:24:41;;;;;;;3.45;1.73;;;25.00;41.80;;;;;;2373463;56;21043;-74
2022/05/16 12:27:25;;;;;;;3.30;2.00;;;25.00;40.60;;;;;;2372306;56;21047;-74
2022/05/16 12:29:56;;;;;;;4.75;2.03;;;25.00;39.90;;;;;;2627071;52;21047;-74
2022/05/16 12:32:52;;;;;;;2.75;1.30;;;25.10;39.80;;;;;;2373833;56;21114;-75
2022/05/16 12:35:41;;;;;;;6.65;2.03;;;25.20;40.60;;;;;;2373303;56;21035;-75
2022/05/16 12:38:11;;;;;;;5.82;1.73;;;25.20;39.70;;;;;;2373314;56;21198;-74
2022/05/16 12:41:06;;;;;;;7.15;2.35;;;25.30;39.10;;;;;;2374140;56;21039;-74
2022/05/16 12:43:52;;;;;;;3.53;1.65;;;25.30;39.90;;;;;;2351632;56;21015;-74
2022/05/16 12:46:54;;;;;;;6.82;2.12;;;25.40;39.30;;;;;;2372198;56;21059;-74
2022/05/16 12:49:50;;;;;;;4.90;2.20;;;25.60;40.30;;;;;;2373917;56;21058;-74
2022/05/16 12:52:40;;;;;;;4.70;1.70;;;25.70;39.30;;;;;;2373812;56;21543;-75
2022/05/16 12:55:28;;;;;;;5.25;1.73;;;25.70;39.10;;;;;;2373886;56;21039;-74
2022/05/16 12:58:11;;;;;;;3.90;1.73;;;25.90;38.80;;;;;;2373512;56;21055;-74
2022/05/16 13:00:46;;;;;;;6.15;1.70;;;25.90;38.30;;;;;;2374114;56;21023;-74
2022/05/16 13:03:27;;;;;;;2.78;1.55;;;26.00;38.70;;;;;;2369114;56;21213;-74
2022/05/16 13:06:01;;;;;;;4.55;1.50;;;26.00;38.40;;;;;;2370656;56;21338;-74
2022/05/16 13:08:37;;;;;;;3.40;1.60;;;26.20;39.10;;;;;;2373281;56;21090;-74
2022/05/16 13:11:16;;;;;;;6.00;1.70;;;26.20;37.70;;;;;;2373384;56;21042;-75
2022/05/16 13:13:56;;;;;;;5.40;1.92;;;26.30;38.10;;;;;;2371264;56;21104;-74
2022/05/16 13:16:26;;;;;;;1.77;1.40;;;26.30;37.40;;;;;;2371132;56;21055;-74
2022/05/16 13:19:00;;;;;;;4.85;1.60;;;26.30;36.40;;;;;;2371721;56;21031;-74
2022/05/16 13:21:38;;;;;;;3.28;1.83;;;26.40;37.50;;;;;;2372356;56;21043;-73
2022/05/16 13:24:12;;;;;;;4.65;1.70;;;26.40;37.30;;;;;;2373098;56;21126;-74
2022/05/16 13:29:33;;;;;;;5.20;1.90;;;26.40;36.70;;;;;;2372994;56;21003;-73
2022/05/16 13:32:08;;;;;;;3.12;1.60;;;26.40;36.90;;;;;;2373641;56;21097;-73
2022/05/16 13:34:37;;;;;;;9.18;2.00;;;26.50;36.30;;;;;;2373817;56;21058;-73
2022/05/16 13:37:08;;;;;;;6.75;1.75;;;26.50;36.00;;;;;;2371309;56;21019;-72
2022/05/16 13:39:39;;;;;;;4.47;1.60;;;26.50;36.20;;;;;;2373312;56;21134;-74
2022/05/16 13:42:07;;;;;;;7.30;1.80;;;26.50;36.30;;;;;;2373587;56;21545;-73
2022/05/16 13:44:36;;;;;;;3.80;1.95;;;26.50;36.60;;;;;;2372881;56;21055;-74
2022/05/16 13:47:06;;;;;;;4.60;1.83;;;26.60;35.40;;;;;;2373133;56;21427;-72
2022/05/16 13:49:34;;;;;;;6.90;1.70;;;26.50;35.30;;;;;;2373438;56;21035;-73
2022/05/16 13:54:37;;;;;;;5.15;1.90;;;26.50;36.20;;;;;;2335886;57;27834;-73
2022/05/16 13:57:08;;;;;;;3.25;1.60;;;26.80;36.30;;;;;;2353650;56;21138;-73
2022/05/16 13:59:36;;;;;;;3.53;1.37;;;26.80;36.10;;;;;;2374476;56;21046;-73